KAL8214 RKSS-RJFK
Flight info
| Callsign | KAL8214 |
|---|---|
| Flight time | 1h 8m |
| Altitude | 37000 |
| Route | OSPOT2T OSPOT Y782 TGU Y781 BESNA Y209 IKE A582 HKC |
| Aircraft | B742/H-SDFHIRWXY/L |
Departure
| Time | 2026-05-04 11:56 |
|---|---|
| Airport | Gimpo International Airport (RKSS) |
Arrival
| Time | 2026-05-04 13:05 |
|---|---|
| Airport | Kagoshima Airport (RJFK) |
| Time | Latitude | Longitude | Altitude | Speed | Heading |
|---|---|---|---|---|---|
| 2026-05-04 11:36 | 37.55055 | 126.80815 | 68 ft | 0 kts | 268° |
| 2026-05-04 11:45 | 37.55055 | 126.80826 | 68 ft | 2 kts | 268° |
| 2026-05-04 11:45 | 37.55055 | 126.80839 | 69 ft | 0 kts | 268° |
| 2026-05-04 11:45 | 37.55057 | 126.80856 | 69 ft | 2 kts | 248° |
| 2026-05-04 11:45 | 37.55065 | 126.80872 | 69 ft | 2 kts | 226° |
| 2026-05-04 11:46 | 37.55077 | 126.80884 | 68 ft | 2 kts | 205° |
| 2026-05-04 11:46 | 37.55091 | 126.80889 | 68 ft | 2 kts | 185° |
| 2026-05-04 11:46 | 37.55106 | 126.80888 | 68 ft | 2 kts | 163° |
| 2026-05-04 11:46 | 37.55119 | 126.80880 | 68 ft | 2 kts | 142° |
| 2026-05-04 11:47 | 37.55125 | 126.80873 | 68 ft | 1 kts | 134° |
| 2026-05-04 11:47 | 37.55127 | 126.80871 | 68 ft | 0 kts | 134° |
| 2026-05-04 11:49 | 37.55127 | 126.80872 | 68 ft | 0 kts | 134° |
| 2026-05-04 11:50 | 37.55123 | 126.80875 | 68 ft | 1 kts | 134° |
| 2026-05-04 11:50 | 37.55109 | 126.80893 | 68 ft | 4 kts | 135° |
| 2026-05-04 11:50 | 37.55083 | 126.80926 | 68 ft | 6 kts | 135° |
| 2026-05-04 11:50 | 37.55041 | 126.80971 | 68 ft | 8 kts | 159° |
| 2026-05-04 11:51 | 37.54989 | 126.80949 | 68 ft | 9 kts | 220° |
| 2026-05-04 11:51 | 37.54936 | 126.80885 | 68 ft | 11 kts | 224° |
| 2026-05-04 11:51 | 37.54871 | 126.80804 | 68 ft | 14 kts | 225° |
| 2026-05-04 11:51 | 37.54835 | 126.80757 | 68 ft | 0 kts | 226° |
| 2026-05-04 11:52 | 37.54820 | 126.80736 | 68 ft | 5 kts | 236° |
| 2026-05-04 11:53 | 37.54813 | 126.80696 | 68 ft | 4 kts | 270° |
| 2026-05-04 11:53 | 37.54818 | 126.80668 | 68 ft | 3 kts | 295° |
| 2026-05-04 11:53 | 37.54827 | 126.80651 | 68 ft | 0 kts | 313° |
| 2026-05-04 11:56 | 37.54929 | 126.80517 | 68 ft | 53 kts | 315° |
| 2026-05-04 11:56 | 37.55370 | 126.79964 | 69 ft | 122 kts | 315° |
| 2026-05-04 11:56 | 37.56107 | 126.79060 | 175 ft | 165 kts | 313° |
| 2026-05-04 11:56 | 37.56895 | 126.78046 | 853 ft | 163 kts | 311° |
| 2026-05-04 11:57 | 37.57665 | 126.77031 | 1575 ft | 164 kts | 311° |
| 2026-05-04 11:57 | 37.58479 | 126.75945 | 1963 ft | 176 kts | 311° |
| 2026-05-04 11:57 | 37.59341 | 126.74789 | 2235 ft | 186 kts | 311° |
| 2026-05-04 11:57 | 37.60250 | 126.73566 | 2516 ft | 198 kts | 312° |
| 2026-05-04 11:58 | 37.61229 | 126.72245 | 2798 ft | 211 kts | 312° |
| 2026-05-04 11:58 | 37.62216 | 126.70808 | 3071 ft | 226 kts | 300° |
| 2026-05-04 11:58 | 37.62601 | 126.68851 | 3375 ft | 243 kts | 266° |
| 2026-05-04 11:58 | 37.61966 | 126.66864 | 3983 ft | 254 kts | 233° |
| 2026-05-04 11:59 | 37.60725 | 126.65299 | 4643 ft | 257 kts | 227° |
| 2026-05-04 11:59 | 37.59444 | 126.63726 | 5315 ft | 258 kts | 229° |
| 2026-05-04 11:59 | 37.58189 | 126.62093 | 5954 ft | 261 kts | 230° |
| 2026-05-04 11:59 | 37.56929 | 126.60428 | 6555 ft | 265 kts | 227° |
| 2026-05-04 12:00 | 37.55340 | 126.59251 | 7072 ft | 277 kts | 197° |
| 2026-05-04 12:00 | 37.53419 | 126.58884 | 7690 ft | 280 kts | 187° |
| 2026-05-04 12:00 | 37.51473 | 126.58668 | 8286 ft | 283 kts | 187° |
| 2026-05-04 12:00 | 37.49501 | 126.58433 | 8879 ft | 286 kts | 187° |
| 2026-05-04 12:01 | 37.47499 | 126.58175 | 9441 ft | 290 kts | 188° |
| 2026-05-04 12:01 | 37.45504 | 126.57909 | 9997 ft | 293 kts | 188° |
| 2026-05-04 12:02 | 37.33033 | 126.59396 | 12793 ft | 323 kts | 156° |
| 2026-05-04 12:03 | 37.31069 | 126.60915 | 13055 ft | 334 kts | 137° |
| 2026-05-04 12:03 | 37.29534 | 126.63111 | 13319 ft | 345 kts | 123° |
| 2026-05-04 12:03 | 37.28148 | 126.65653 | 13621 ft | 359 kts | 123° |
| 2026-05-04 12:03 | 37.26655 | 126.68253 | 13955 ft | 373 kts | 125° |
| 2026-05-04 12:04 | 37.25047 | 126.70877 | 14324 ft | 385 kts | 126° |
| 2026-05-04 12:04 | 37.23392 | 126.73489 | 15014 ft | 386 kts | 127° |
| 2026-05-04 12:04 | 37.21710 | 126.76118 | 15671 ft | 389 kts | 127° |
| 2026-05-04 12:04 | 37.20011 | 126.78768 | 16259 ft | 392 kts | 126° |
| 2026-05-04 12:05 | 37.18300 | 126.81438 | 16847 ft | 396 kts | 126° |
| 2026-05-04 12:05 | 37.16568 | 126.84143 | 17402 ft | 399 kts | 126° |
| 2026-05-04 12:05 | 37.14843 | 126.86835 | 18004 ft | 403 kts | 126° |
| 2026-05-04 12:05 | 37.13089 | 126.89570 | 18564 ft | 406 kts | 126° |
| 2026-05-04 12:06 | 37.11280 | 126.92389 | 19121 ft | 410 kts | 126° |
| 2026-05-04 12:06 | 37.09488 | 126.95180 | 19679 ft | 414 kts | 126° |
| 2026-05-04 12:06 | 37.07688 | 126.97980 | 20272 ft | 417 kts | 126° |
| 2026-05-04 12:06 | 37.05850 | 127.00838 | 20795 ft | 421 kts | 126° |
| 2026-05-04 12:07 | 37.04019 | 127.03681 | 21377 ft | 424 kts | 127° |
| 2026-05-04 12:07 | 37.02161 | 127.06565 | 21893 ft | 428 kts | 127° |
| 2026-05-04 12:07 | 37.00299 | 127.09453 | 22310 ft | 435 kts | 127° |
| 2026-05-04 12:07 | 36.98385 | 127.12418 | 22714 ft | 442 kts | 127° |
| 2026-05-04 12:08 | 36.96434 | 127.15437 | 23251 ft | 445 kts | 127° |
| 2026-05-04 12:08 | 36.94495 | 127.18435 | 23753 ft | 449 kts | 127° |
| 2026-05-04 12:08 | 36.92509 | 127.21503 | 24210 ft | 453 kts | 127° |
| 2026-05-04 12:08 | 36.90537 | 127.24548 | 24661 ft | 456 kts | 128° |
| 2026-05-04 12:09 | 36.88516 | 127.27667 | 25029 ft | 461 kts | 128° |
| 2026-05-04 12:09 | 36.86469 | 127.30827 | 25460 ft | 465 kts | 128° |
| 2026-05-04 12:09 | 36.84430 | 127.33967 | 25897 ft | 468 kts | 129° |
| 2026-05-04 12:09 | 36.82246 | 127.36978 | 26340 ft | 470 kts | 134° |
| 2026-05-04 12:10 | 36.79920 | 127.39883 | 26722 ft | 474 kts | 136° |
| 2026-05-04 12:10 | 36.77560 | 127.42741 | 27103 ft | 477 kts | 136° |
| 2026-05-04 12:10 | 36.75155 | 127.45646 | 27496 ft | 480 kts | 137° |
| 2026-05-04 12:10 | 36.72760 | 127.48550 | 27891 ft | 483 kts | 137° |
| 2026-05-04 12:11 | 36.70353 | 127.51484 | 28266 ft | 486 kts | 137° |
| 2026-05-04 12:11 | 36.67909 | 127.54469 | 28656 ft | 488 kts | 137° |
| 2026-05-04 12:11 | 36.65464 | 127.57458 | 29002 ft | 491 kts | 137° |
| 2026-05-04 12:11 | 36.63042 | 127.60420 | 29317 ft | 495 kts | 137° |
| 2026-05-04 12:12 | 36.60575 | 127.63436 | 29716 ft | 496 kts | 137° |
| 2026-05-04 12:12 | 36.58091 | 127.66465 | 30065 ft | 498 kts | 139° |
| 2026-05-04 12:12 | 36.55614 | 127.69446 | 30361 ft | 501 kts | 139° |
| 2026-05-04 12:12 | 36.53085 | 127.72483 | 30637 ft | 504 kts | 139° |
| 2026-05-04 12:13 | 36.50562 | 127.75523 | 30916 ft | 507 kts | 139° |
| 2026-05-04 12:14 | 36.32632 | 127.97259 | 32777 ft | 522 kts | 141° |
| 2026-05-04 12:15 | 36.30038 | 128.00397 | 33039 ft | 523 kts | 141° |
| 2026-05-04 12:15 | 36.27426 | 128.03552 | 33247 ft | 526 kts | 141° |
| 2026-05-04 12:15 | 36.24790 | 128.06732 | 33448 ft | 529 kts | 141° |
| 2026-05-04 12:15 | 36.22170 | 128.09891 | 33734 ft | 529 kts | 142° |
| 2026-05-04 12:16 | 36.19513 | 128.13091 | 33988 ft | 531 kts | 142° |
| 2026-05-04 12:16 | 36.16856 | 128.16284 | 34128 ft | 534 kts | 142° |
| 2026-05-04 12:16 | 36.14214 | 128.19457 | 34298 ft | 536 kts | 142° |
| 2026-05-04 12:16 | 36.11508 | 128.22707 | 34544 ft | 536 kts | 142° |
| 2026-05-04 12:17 | 36.08870 | 128.25871 | 34894 ft | 531 kts | 142° |
| 2026-05-04 12:17 | 36.06232 | 128.29047 | 35548 ft | 519 kts | 142° |
| 2026-05-04 12:17 | 36.00984 | 128.35313 | 35442 ft | 533 kts | 143° |
| 2026-05-04 12:18 | 35.98298 | 128.38516 | 35618 ft | 533 kts | 143° |
| 2026-05-04 12:18 | 35.95666 | 128.41661 | 35822 ft | 528 kts | 143° |
| 2026-05-04 12:18 | 35.93022 | 128.44820 | 36042 ft | 523 kts | 143° |
| 2026-05-04 12:18 | 35.90410 | 128.47932 | 36271 ft | 522 kts | 143° |
| 2026-05-04 12:19 | 35.87833 | 128.51000 | 36495 ft | 522 kts | 143° |
| 2026-05-04 12:19 | 35.85126 | 128.53978 | 36720 ft | 512 kts | 152° |
| 2026-05-04 12:19 | 35.82134 | 128.56218 | 36940 ft | 495 kts | 164° |
| 2026-05-04 12:19 | 35.78941 | 128.57623 | 37069 ft | 480 kts | 176° |
| 2026-05-04 12:20 | 35.72458 | 128.58285 | 37103 ft | 466 kts | 190° |
| 2026-05-04 12:20 | 35.65966 | 128.57844 | 37102 ft | 464 kts | 193° |
| 2026-05-04 12:21 | 35.59549 | 128.57246 | 37101 ft | 456 kts | 193° |
| 2026-05-04 12:21 | 35.53218 | 128.56651 | 37107 ft | 459 kts | 193° |
| 2026-05-04 12:22 | 35.46697 | 128.57074 | 37108 ft | 484 kts | 174° |
| 2026-05-04 12:22 | 35.43506 | 128.58473 | 37111 ft | 495 kts | 165° |
| 2026-05-04 12:22 | 35.40372 | 128.60295 | 37110 ft | 501 kts | 162° |
| 2026-05-04 12:23 | 35.34126 | 128.64224 | 37107 ft | 501 kts | 162° |
| 2026-05-04 12:23 | 35.27881 | 128.68022 | 37103 ft | 497 kts | 164° |
| 2026-05-04 12:24 | 35.21645 | 128.71690 | 37097 ft | 496 kts | 164° |
| 2026-05-04 12:24 | 35.15411 | 128.75354 | 37105 ft | 497 kts | 164° |
| 2026-05-04 12:25 | 35.09146 | 128.79047 | 37094 ft | 498 kts | 164° |
| 2026-05-04 12:25 | 35.02893 | 128.82741 | 37098 ft | 497 kts | 164° |
| 2026-05-04 12:26 | 34.96806 | 128.86842 | 37091 ft | 504 kts | 158° |
| 2026-05-04 12:26 | 34.90860 | 128.91408 | 37098 ft | 506 kts | 158° |
| 2026-05-04 12:27 | 34.84880 | 128.95995 | 37098 ft | 505 kts | 159° |
| 2026-05-04 12:27 | 34.78959 | 129.00479 | 37095 ft | 501 kts | 159° |
| 2026-05-04 12:28 | 34.73004 | 129.04953 | 37104 ft | 504 kts | 159° |
| 2026-05-04 12:28 | 34.67045 | 129.09421 | 37103 ft | 504 kts | 159° |
| 2026-05-04 12:29 | 34.61141 | 129.13886 | 37105 ft | 505 kts | 158° |
| 2026-05-04 12:29 | 34.55197 | 129.18381 | 37104 ft | 505 kts | 159° |
| 2026-05-04 12:30 | 34.49173 | 129.22823 | 37103 ft | 502 kts | 159° |
| 2026-05-04 12:30 | 34.43298 | 129.27185 | 37095 ft | 497 kts | 160° |
| 2026-05-04 12:31 | 34.37368 | 129.31586 | 37101 ft | 500 kts | 159° |
| 2026-05-04 12:31 | 34.31438 | 129.35986 | 37100 ft | 503 kts | 159° |
| 2026-05-04 12:32 | 34.22539 | 129.42596 | 37100 ft | 497 kts | 160° |
| 2026-05-04 12:33 | 34.16656 | 129.46948 | 37099 ft | 498 kts | 160° |
| 2026-05-04 12:33 | 34.10733 | 129.51318 | 37090 ft | 499 kts | 160° |
| 2026-05-04 12:34 | 34.04838 | 129.55670 | 37085 ft | 497 kts | 160° |
| 2026-05-04 12:34 | 33.98982 | 129.59985 | 37097 ft | 496 kts | 160° |
| 2026-05-04 12:35 | 33.93076 | 129.64319 | 37100 ft | 500 kts | 160° |
| 2026-05-04 12:35 | 33.87098 | 129.68666 | 37096 ft | 498 kts | 161° |
| 2026-05-04 12:36 | 33.81186 | 129.72954 | 37083 ft | 493 kts | 161° |
| 2026-05-04 12:36 | 33.75302 | 129.77185 | 37175 ft | 489 kts | 165° |
| 2026-05-04 12:36 | 33.72258 | 129.78781 | 37112 ft | 476 kts | 172° |
| 2026-05-04 12:37 | 33.69134 | 129.80101 | 37093 ft | 471 kts | 174° |
| 2026-05-04 12:37 | 33.62893 | 129.82516 | 37095 ft | 471 kts | 174° |
| 2026-05-04 12:38 | 33.56630 | 129.84958 | 37114 ft | 474 kts | 174° |
| 2026-05-04 12:38 | 33.50407 | 129.87437 | 37104 ft | 469 kts | 174° |
| 2026-05-04 12:38 | 33.47324 | 129.88678 | 36582 ft | 464 kts | 174° |
| 2026-05-04 12:39 | 33.44308 | 129.89890 | 35959 ft | 458 kts | 174° |
| 2026-05-04 12:39 | 33.41267 | 129.91109 | 35333 ft | 454 kts | 174° |
| 2026-05-04 12:39 | 33.38307 | 129.92293 | 34835 ft | 446 kts | 174° |
| 2026-05-04 12:39 | 33.35370 | 129.93468 | 34180 ft | 443 kts | 174° |
| 2026-05-04 12:40 | 33.32503 | 129.94611 | 33688 ft | 436 kts | 174° |
| 2026-05-04 12:40 | 33.29625 | 129.95760 | 33083 ft | 431 kts | 175° |
| 2026-05-04 12:40 | 33.26774 | 129.96893 | 32366 ft | 429 kts | 175° |
| 2026-05-04 12:40 | 33.23948 | 129.98013 | 31661 ft | 427 kts | 174° |
| 2026-05-04 12:41 | 33.21155 | 129.99121 | 30940 ft | 426 kts | 175° |
| 2026-05-04 12:41 | 33.18344 | 130.00230 | 30269 ft | 424 kts | 175° |
| 2026-05-04 12:41 | 33.15566 | 130.01327 | 29719 ft | 419 kts | 175° |
| 2026-05-04 12:41 | 33.12826 | 130.02411 | 29181 ft | 415 kts | 175° |
| 2026-05-04 12:42 | 33.10081 | 130.03488 | 28495 ft | 415 kts | 174° |
| 2026-05-04 12:42 | 33.07339 | 130.04565 | 27885 ft | 414 kts | 174° |
| 2026-05-04 12:42 | 33.04605 | 130.05641 | 27275 ft | 413 kts | 174° |
| 2026-05-04 12:42 | 33.01893 | 130.06705 | 26593 ft | 413 kts | 174° |
| 2026-05-04 12:43 | 32.99177 | 130.07771 | 26018 ft | 412 kts | 173° |
| 2026-05-04 12:43 | 32.96442 | 130.08849 | 25528 ft | 408 kts | 173° |
| 2026-05-04 12:43 | 32.93768 | 130.09901 | 24977 ft | 406 kts | 173° |
| 2026-05-04 12:43 | 32.91089 | 130.10950 | 24298 ft | 408 kts | 173° |
| 2026-05-04 12:44 | 32.88379 | 130.12012 | 23746 ft | 406 kts | 172° |
| 2026-05-04 12:44 | 32.85729 | 130.13051 | 23254 ft | 403 kts | 172° |
| 2026-05-04 12:44 | 32.83064 | 130.14096 | 22793 ft | 400 kts | 172° |
| 2026-05-04 12:44 | 32.80448 | 130.15120 | 22320 ft | 397 kts | 171° |
| 2026-05-04 12:45 | 32.77811 | 130.16151 | 21865 ft | 394 kts | 171° |
| 2026-05-04 12:45 | 32.75203 | 130.17171 | 21358 ft | 393 kts | 170° |
| 2026-05-04 12:45 | 32.72608 | 130.18181 | 20830 ft | 392 kts | 169° |
| 2026-05-04 12:45 | 32.70046 | 130.19182 | 20379 ft | 389 kts | 169° |
| 2026-05-04 12:46 | 32.67473 | 130.20184 | 19888 ft | 387 kts | 168° |
| 2026-05-04 12:46 | 32.64922 | 130.21179 | 19410 ft | 385 kts | 168° |
| 2026-05-04 12:46 | 32.62405 | 130.22160 | 18928 ft | 383 kts | 167° |
| 2026-05-04 12:46 | 32.59855 | 130.23152 | 18457 ft | 381 kts | 166° |
| 2026-05-04 12:47 | 32.57364 | 130.24126 | 17981 ft | 379 kts | 165° |
| 2026-05-04 12:47 | 32.54861 | 130.25117 | 17505 ft | 376 kts | 165° |
| 2026-05-04 12:47 | 32.52376 | 130.26103 | 17037 ft | 374 kts | 165° |
| 2026-05-04 12:47 | 32.49930 | 130.27074 | 16584 ft | 371 kts | 165° |
| 2026-05-04 12:48 | 32.47487 | 130.28040 | 16094 ft | 369 kts | 165° |
| 2026-05-04 12:48 | 32.45067 | 130.28995 | 15636 ft | 366 kts | 165° |
| 2026-05-04 12:48 | 32.42663 | 130.29942 | 15166 ft | 364 kts | 165° |
| 2026-05-04 12:48 | 32.40295 | 130.30875 | 14681 ft | 362 kts | 165° |
| 2026-05-04 12:49 | 32.37898 | 130.31819 | 14220 ft | 360 kts | 165° |
| 2026-05-04 12:49 | 32.35539 | 130.32748 | 13768 ft | 357 kts | 165° |
| 2026-05-04 12:49 | 32.33180 | 130.33676 | 13305 ft | 355 kts | 165° |
| 2026-05-04 12:49 | 32.30857 | 130.34589 | 12851 ft | 353 kts | 165° |
| 2026-05-04 12:50 | 32.28537 | 130.35501 | 12339 ft | 348 kts | 164° |
| 2026-05-04 12:50 | 32.26262 | 130.36395 | 11856 ft | 339 kts | 164° |
| 2026-05-04 12:50 | 32.24034 | 130.37271 | 11368 ft | 332 kts | 163° |
| 2026-05-04 12:50 | 32.21869 | 130.38121 | 10894 ft | 326 kts | 163° |
| 2026-05-04 12:51 | 32.19750 | 130.38951 | 10417 ft | 320 kts | 163° |
| 2026-05-04 12:51 | 32.17657 | 130.39772 | 10061 ft | 317 kts | 163° |
| 2026-05-04 12:51 | 32.15573 | 130.40588 | 9741 ft | 312 kts | 163° |
| 2026-05-04 12:51 | 32.13524 | 130.41391 | 9437 ft | 308 kts | 163° |
| 2026-05-04 12:52 | 32.11485 | 130.42189 | 9083 ft | 305 kts | 163° |
| 2026-05-04 12:52 | 32.09491 | 130.42961 | 8715 ft | 304 kts | 163° |
| 2026-05-04 12:52 | 32.07482 | 130.43738 | 8336 ft | 303 kts | 162° |
| 2026-05-04 12:52 | 32.05473 | 130.44516 | 7996 ft | 299 kts | 162° |
| 2026-05-04 12:53 | 32.03519 | 130.45274 | 7621 ft | 299 kts | 162° |
| 2026-05-04 12:53 | 32.01540 | 130.46040 | 7283 ft | 296 kts | 162° |
| 2026-05-04 12:53 | 31.99572 | 130.46802 | 6929 ft | 294 kts | 162° |
| 2026-05-04 12:53 | 31.97638 | 130.47549 | 6531 ft | 294 kts | 162° |
| 2026-05-04 12:54 | 31.95717 | 130.48292 | 6210 ft | 291 kts | 161° |
| 2026-05-04 12:54 | 31.93791 | 130.49037 | 5851 ft | 290 kts | 161° |
| 2026-05-04 12:54 | 31.91880 | 130.49776 | 5580 ft | 285 kts | 161° |
| 2026-05-04 12:54 | 31.89994 | 130.50503 | 5330 ft | 281 kts | 161° |
| 2026-05-04 12:55 | 31.88181 | 130.51204 | 5089 ft | 276 kts | 161° |
| 2026-05-04 12:55 | 31.86352 | 130.51909 | 4840 ft | 272 kts | 161° |
| 2026-05-04 12:55 | 31.84570 | 130.52597 | 4593 ft | 268 kts | 161° |
| 2026-05-04 12:55 | 31.82816 | 130.53271 | 4349 ft | 264 kts | 161° |
| 2026-05-04 12:56 | 31.81084 | 130.53940 | 4102 ft | 260 kts | 161° |
| 2026-05-04 12:56 | 31.79357 | 130.54605 | 3855 ft | 257 kts | 161° |
| 2026-05-04 12:56 | 31.77668 | 130.55255 | 3609 ft | 254 kts | 161° |
| 2026-05-04 12:56 | 31.76001 | 130.55896 | 3369 ft | 250 kts | 161° |
| 2026-05-04 12:57 | 31.74356 | 130.56529 | 3174 ft | 249 kts | 161° |
| 2026-05-04 12:57 | 31.72698 | 130.57167 | 2975 ft | 246 kts | 161° |
| 2026-05-04 12:57 | 31.71094 | 130.57799 | 2839 ft | 242 kts | 156° |
| 2026-05-04 12:57 | 31.69771 | 130.58969 | 2825 ft | 241 kts | 120° |
| 2026-05-04 12:58 | 31.69100 | 130.60753 | 2809 ft | 238 kts | 105° |
| 2026-05-04 12:58 | 31.68607 | 130.62576 | 2803 ft | 228 kts | 104° |
| 2026-05-04 12:58 | 31.68154 | 130.64293 | 2793 ft | 213 kts | 103° |
| 2026-05-04 12:58 | 31.67727 | 130.65907 | 2802 ft | 200 kts | 104° |
| 2026-05-04 12:59 | 31.67316 | 130.67436 | 2819 ft | 196 kts | 104° |
| 2026-05-04 12:59 | 31.66911 | 130.68956 | 2807 ft | 197 kts | 104° |
| 2026-05-04 12:59 | 31.66503 | 130.70496 | 2807 ft | 198 kts | 103° |
| 2026-05-04 12:59 | 31.66099 | 130.72023 | 2806 ft | 194 kts | 103° |
| 2026-05-04 13:00 | 31.65702 | 130.73532 | 2814 ft | 200 kts | 104° |
| 2026-05-04 13:00 | 31.65393 | 130.75110 | 2792 ft | 189 kts | 82° |
| 2026-05-04 13:00 | 31.65850 | 130.76517 | 2823 ft | 190 kts | 54° |
| 2026-05-04 13:00 | 31.66466 | 130.77867 | 2805 ft | 184 kts | 59° |
| 2026-05-04 13:01 | 31.67045 | 130.79239 | 2811 ft | 191 kts | 59° |
| 2026-05-04 13:01 | 31.67699 | 130.80559 | 2795 ft | 181 kts | 40° |
| 2026-05-04 13:01 | 31.68801 | 130.81102 | 2803 ft | 177 kts | 355° |
| 2026-05-04 13:01 | 31.69893 | 130.80513 | 2810 ft | 176 kts | 309° |
| 2026-05-04 13:02 | 31.70491 | 130.79259 | 2810 ft | 176 kts | 301° |
| 2026-05-04 13:02 | 31.71238 | 130.78244 | 2663 ft | 159 kts | 323° |
| 2026-05-04 13:02 | 31.72129 | 130.77521 | 2516 ft | 151 kts | 331° |
| 2026-05-04 13:02 | 31.72986 | 130.76918 | 2375 ft | 136 kts | 331° |
| 2026-05-04 13:03 | 31.73793 | 130.76361 | 2115 ft | 133 kts | 332° |
| 2026-05-04 13:03 | 31.74578 | 130.75827 | 1958 ft | 132 kts | 332° |
| 2026-05-04 13:03 | 31.75371 | 130.75288 | 1778 ft | 131 kts | 332° |
| 2026-05-04 13:03 | 31.76165 | 130.74756 | 1616 ft | 132 kts | 332° |
| 2026-05-04 13:04 | 31.76962 | 130.74220 | 1437 ft | 132 kts | 330° |
| 2026-05-04 13:04 | 31.77754 | 130.73685 | 1263 ft | 132 kts | 331° |
| 2026-05-04 13:04 | 31.78568 | 130.73154 | 1078 ft | 132 kts | 327° |
| 2026-05-04 13:04 | 31.79364 | 130.72598 | 924 ft | 135 kts | 330° |
| 2026-05-04 13:05 | 31.80131 | 130.72075 | 902 ft | 106 kts | 330° |
| 2026-05-04 13:05 | 31.80590 | 130.71768 | 902 ft | 45 kts | 330° |
| 2026-05-04 13:05 | 31.80739 | 130.71655 | 902 ft | 20 kts | 319° |
| 2026-05-04 13:05 | 31.80825 | 130.71542 | 902 ft | 13 kts | 306° |
| 2026-05-04 13:06 | 31.80852 | 130.71449 | 902 ft | 11 kts | 249° |
| 2026-05-04 13:06 | 31.80792 | 130.71416 | 902 ft | 9 kts | 166° |
| 2026-05-04 13:06 | 31.80734 | 130.71448 | 902 ft | 8 kts | 150° |
| 2026-05-04 13:06 | 31.80683 | 130.71483 | 902 ft | 8 kts | 150° |
| 2026-05-04 13:07 | 31.80635 | 130.71515 | 902 ft | 7 kts | 149° |
| 2026-05-04 13:07 | 31.80592 | 130.71545 | 902 ft | 6 kts | 150° |
| 2026-05-04 13:07 | 31.80551 | 130.71562 | 902 ft | 5 kts | 183° |
| 2026-05-04 13:07 | 31.80527 | 130.71538 | 902 ft | 5 kts | 246° |
| 2026-05-04 13:08 | 31.80506 | 130.71489 | 902 ft | 7 kts | 240° |
| 2026-05-04 13:08 | 31.80485 | 130.71448 | 902 ft | 3 kts | 240° |
| 2026-05-04 13:08 | 31.80485 | 130.71446 | 902 ft | 0 kts | 240° |